Details From LGAV - Athens Intl Airport Elefterios Venizel
To HEMM - Mersa Matruh
Flight Number -
Tags Decoded
Created
Modified
Stats Distance 449 nm / 831 km
Max Altitude 0 ft / 0 m
Waypoints 4
Social Downloads 2
Likes 0
Share VATSIM

Download

Looking for another format? Having issues loading an existing format? Contact us
Advertisement - Login to hide

Notes

Decoded

Route

LGAV SOREV PAXIS HEMM

ID Type Via Altitude Latitude Longitude Leg Dist Tot Dist Heading (true) Name
O LGAV APT - 0 ft / 0 m 37.92101˚ 23.91920˚ - 0 nm - -
SOREV FIX - 0 ft / 0 m 37.09694˚ 24.42444˚ 55 nm 55 nm 154° / 154° -
PAXIS FIX - 0 ft / 0 m 33.95167˚ 27.33333˚ 236 nm 291 nm 142° / 144° -
O HEMM APT - 0 ft / 0 m 31.33706˚ 27.21371˚ 157 nm 448 nm 182° / 182° -

Altitude Profile

Advertisement - Login to hide

Weather


0- 5 10 15 20 25 30 35+ Temperature / ° C

Clouds and Precipitation
Forecast for 2018-05-21 06:00 UTC. Updated 3 hours ago

Ground ~20,000 ft ~40,000 ft Winds

LGAV

Details ICAO LGAV (ATH)
Name Athens Intl Airport Elefterios Venizel
Region Greece
Timezone Europe/Athens (UTC+3.0)
Stats Elevation 308 ft / 94 m (AMSL)
Location 37.936357° 23.944470°
Runways 2
Magnetic Variation 4.526° E

METAR

LGAV 210750Z 03017KT 9999 FEW030 24/13 Q1014 NOSIG

Decode

TAF

TAF TAF LGAV 210500Z 2106/2206 05012KT 9999 FEW030 TEMPO 2109/2118 05015G25KT

Decode

Departure Runways

ID Width Length Bearing (true) Bearing (mag) Surface Threshold Offset Overrun Length
03L 148 ft / 45 m 12,474 ft / 3,802 m 36.51° 31.98° Asphalt 984 ft / 300 m 393 ft / 120 m
03R 148 ft / 45 m 13,131 ft / 4,002 m 36.52° 31.99° Asphalt 984 ft / 300 m 393 ft / 120 m
21L 148 ft / 45 m 13,131 ft / 4,002 m 216.54° 212.01° Asphalt 984 ft / 300 m 393 ft / 120 m
21R 148 ft / 45 m 12,474 ft / 3,802 m 216.53° 212.00° Asphalt 984 ft / 300 m 393 ft / 120 m

HEMM

Details ICAO HEMM (MUH)
Name MERSA MATRUH
Region Egypt
Timezone Africa/Cairo (UTC+2.0)
Stats Elevation 94 ft / 29 m (AMSL)
Location 31.327068° 27.225097°
Runways 2
Magnetic Variation 4.272° E

METAR

HEMM 210700Z 15017KT 5000 SA NSC 33/06 Q1012 NOSIG

Decode

TAF

Not found

Destination Runways

ID Width Length Bearing (true) Bearing (mag) Surface Threshold Offset Overrun Length
06 148 ft / 45 m 9,826 ft / 2,995 m 59.88° 55.61° Asphalt 160 ft / 49 m 0 ft / 0 m
15 148 ft / 45 m 9,871 ft / 3,009 m 149.80° 145.53° Asphalt 0 ft / 0 m 80 ft / 24 m
24 148 ft / 45 m 9,826 ft / 2,995 m 239.90° 235.63° Asphalt 160 ft / 49 m 0 ft / 0 m
33 148 ft / 45 m 9,871 ft / 3,009 m 329.81° 325.54° Asphalt 0 ft / 0 m 0 ft / 0 m

Popular Alternatives